sensor_id;sensor_type;location;lat;lon;timestamp;pressure;altitude;pressure_sealevel;temperature;humidity
10008;BME280;5043;41.766;26.204;2024-02-16T00:00:26;101516.72;;;8.88;86.36
10008;BME280;5043;41.766;26.204;2024-02-16T00:02:52;101497.06;;;8.78;86.55
10008;BME280;5043;41.766;26.204;2024-02-16T00:05:18;101515.69;;;8.91;86.48
10008;BME280;5043;41.766;26.204;2024-02-16T00:07:43;101519.94;;;8.93;86.62
10008;BME280;5043;41.766;26.204;2024-02-16T00:10:09;101506.50;;;8.82;87.03
10008;BME280;5043;41.766;26.204;2024-02-16T00:12:35;101514.88;;;8.90;87.07
10008;BME280;5043;41.766;26.204;2024-02-16T00:15:01;101520.03;;;8.92;87.13
10008;BME280;5043;41.766;26.204;2024-02-16T00:17:27;101519.94;;;8.93;86.68
10008;BME280;5043;41.766;26.204;2024-02-16T00:19:53;101521.81;;;8.91;86.44
10008;BME280;5043;41.766;26.204;2024-02-16T00:22:19;101520.75;;;8.95;86.43
10008;BME280;5043;41.766;26.204;2024-02-16T00:24:44;101484.69;;;8.80;86.12
10008;BME280;5043;41.766;26.204;2024-02-16T00:27:10;101522.28;;;8.99;86.08
10008;BME280;5043;41.766;26.204;2024-02-16T00:29:35;101500.31;;;8.83;85.82
10008;BME280;5043;41.766;26.204;2024-02-16T00:32:04;101572.41;;;8.79;85.73
10008;BME280;5043;41.766;26.204;2024-02-16T00:34:29;101519.03;;;8.94;86.10
10008;BME280;5043;41.766;26.204;2024-02-16T00:36:54;101504.25;;;8.92;85.37
10008;BME280;5043;41.766;26.204;2024-02-16T00:39:20;101461.03;;;8.63;84.79
10008;BME280;5043;41.766;26.204;2024-02-16T00:41:47;101525.81;;;8.98;86.03
10008;BME280;5043;41.766;26.204;2024-02-16T00:44:12;101513.66;;;8.96;86.61
10008;BME280;5043;41.766;26.204;2024-02-16T00:46:38;101518.78;;;8.99;86.79
10008;BME280;5043;41.766;26.204;2024-02-16T00:49:03;101503.47;;;8.90;86.55
10008;BME280;5043;41.766;26.204;2024-02-16T00:51:29;101502.63;;;8.89;86.65
10008;BME280;5043;41.766;26.204;2024-02-16T00:53:55;101524.13;;;8.97;86.56
10008;BME280;5043;41.766;26.204;2024-02-16T00:56:20;101526.78;;;8.97;86.12
10008;BME280;5043;41.766;26.204;2024-02-16T00:58:46;101519.69;;;8.98;86.89
10008;BME280;5043;41.766;26.204;2024-02-16T01:01:11;101502.63;;;8.89;85.96
10008;BME280;5043;41.766;26.204;2024-02-16T01:03:40;101519.03;;;8.94;86.57
10008;BME280;5043;41.766;26.204;2024-02-16T01:06:06;101489.19;;;8.78;86.38
10008;BME280;5043;41.766;26.204;2024-02-16T01:08:32;101514.88;;;8.90;86.13
10008;BME280;5043;41.766;26.204;2024-02-16T01:10:58;101468.63;;;8.52;85.91
10008;BME280;5043;41.766;26.204;2024-02-16T01:13:23;101510.84;;;8.83;85.95
10008;BME280;5043;41.766;26.204;2024-02-16T01:15:49;101482.84;;;8.65;85.77
10008;BME280;5043;41.766;26.204;2024-02-16T01:18:14;101497.13;;;8.77;85.12
10008;BME280;5043;41.766;26.204;2024-02-16T01:20:41;101486.69;;;8.75;84.46
10008;BME280;5043;41.766;26.204;2024-02-16T01:23:06;101490.88;;;8.79;84.75
10008;BME280;5043;41.766;26.204;2024-02-16T01:25:32;101483.91;;;8.78;84.50
10008;BME280;5043;41.766;26.204;2024-02-16T01:27:58;101478.81;;;8.75;84.28
10008;BME280;5043;41.766;26.204;2024-02-16T01:30:24;101530.72;;;8.89;84.48
10008;BME280;5043;41.766;26.204;2024-02-16T01:32:49;101523.56;;;8.91;84.10
10008;BME280;5043;41.766;26.204;2024-02-16T01:35:15;101469.06;;;8.77;84.20
10008;BME280;5043;41.766;26.204;2024-02-16T01:37:41;101473.47;;;8.77;84.33
10008;BME280;5043;41.766;26.204;2024-02-16T01:40:08;101476.03;;;8.78;83.81
10008;BME280;5043;41.766;26.204;2024-02-16T01:42:42;101496.09;;;8.96;83.79
10008;BME280;5043;41.766;26.204;2024-02-16T01:45:08;101492.09;;;8.89;83.99
10008;BME280;5043;41.766;26.204;2024-02-16T01:47:35;101501.53;;;8.93;84.13
10008;BME280;5043;41.766;26.204;2024-02-16T01:50:02;101479.44;;;8.80;84.32
10008;BME280;5043;41.766;26.204;2024-02-16T01:52:28;101488.59;;;8.89;84.22
10008;BME280;5043;41.766;26.204;2024-02-16T01:54:56;101491.94;;;8.92;83.38
10008;BME280;5043;41.766;26.204;2024-02-16T01:57:21;101482.44;;;8.90;83.45
10008;BME280;5043;41.766;26.204;2024-02-16T01:59:47;101499.44;;;9.00;82.68
10008;BME280;5043;41.766;26.204;2024-02-16T02:02:13;101494.72;;;8.89;82.36
10008;BME280;5043;41.766;26.204;2024-02-16T02:04:38;101484.81;;;8.94;81.92
10008;BME280;5043;41.766;26.204;2024-02-16T02:07:14;101495.63;;;9.06;80.98
10008;BME280;5043;41.766;26.204;2024-02-16T02:09:40;101498.09;;;9.09;81.08
10008;BME280;5043;41.766;26.204;2024-02-16T02:12:05;101474.13;;;8.97;81.15
10008;BME280;5043;41.766;26.204;2024-02-16T02:14:31;101486.53;;;8.95;81.00
10008;BME280;5043;41.766;26.204;2024-02-16T02:16:56;101496.63;;;9.03;81.32
10008;BME280;5043;41.766;26.204;2024-02-16T02:19:22;101504.47;;;9.05;80.94
10008;BME280;5043;41.766;26.204;2024-02-16T02:21:47;101501.09;;;8.85;81.25
10008;BME280;5043;41.766;26.204;2024-02-16T02:24:13;101505.63;;;8.99;80.99
10008;BME280;5043;41.766;26.204;2024-02-16T02:26:39;101509.25;;;8.96;80.87
10008;BME280;5043;41.766;26.204;2024-02-16T02:29:04;101505.00;;;8.94;81.14
10008;BME280;5043;41.766;26.204;2024-02-16T02:31:30;101511.81;;;8.98;81.40
10008;BME280;5043;41.766;26.204;2024-02-16T02:33:55;101509.13;;;8.99;81.08
10008;BME280;5043;41.766;26.204;2024-02-16T02:36:21;101509.13;;;8.99;81.44
10008;BME280;5043;41.766;26.204;2024-02-16T02:38:47;101507.50;;;8.97;81.39
10008;BME280;5043;41.766;26.204;2024-02-16T02:41:12;101511.28;;;8.91;81.68
10008;BME280;5043;41.766;26.204;2024-02-16T02:43:41;101513.84;;;8.93;81.73
10008;BME280;5043;41.766;26.204;2024-02-16T02:46:07;101484.53;;;8.83;81.12
10008;BME280;5043;41.766;26.204;2024-02-16T02:48:32;101498.88;;;8.93;81.59
10008;BME280;5043;41.766;26.204;2024-02-16T02:50:58;101515.16;;;9.02;81.24
10008;BME280;5043;41.766;26.204;2024-02-16T02:53:28;101496.56;;;9.05;80.50
10008;BME280;5043;41.766;26.204;2024-02-16T02:55:54;101511.75;;;8.99;80.56
10008;BME280;5043;41.766;26.204;2024-02-16T02:58:19;101497.97;;;8.94;81.13
10008;BME280;5043;41.766;26.204;2024-02-16T03:00:45;101486.84;;;8.89;80.37
10008;BME280;5043;41.766;26.204;2024-02-16T03:03:10;101490.72;;;8.82;80.53
10008;BME280;5043;41.766;26.204;2024-02-16T03:05:36;101495.97;;;8.82;80.33
10008;BME280;5043;41.766;26.204;2024-02-16T03:08:01;101523.28;;;8.97;79.43
10008;BME280;5043;41.766;26.204;2024-02-16T03:10:27;101526.91;;;8.94;78.26
10008;BME280;5043;41.766;26.204;2024-02-16T03:12:59;101521.56;;;8.96;77.05
10008;BME280;5043;41.766;26.204;2024-02-16T03:15:25;101517.31;;;8.93;76.75
10008;BME280;5043;41.766;26.204;2024-02-16T03:17:50;101534.03;;;8.92;76.43
10008;BME280;5043;41.766;26.204;2024-02-16T03:20:16;101533.44;;;8.87;77.16
10008;BME280;5043;41.766;26.204;2024-02-16T03:22:41;101533.56;;;8.84;77.33
10008;BME280;5043;41.766;26.204;2024-02-16T03:25:07;101479.28;;;8.49;77.91
10008;BME280;5043;41.766;26.204;2024-02-16T03:27:33;101527.53;;;8.82;77.76
10008;BME280;5043;41.766;26.204;2024-02-16T03:29:59;101514.88;;;8.73;77.78
10008;BME280;5043;41.766;26.204;2024-02-16T03:32:24;101538.84;;;8.84;78.15
10008;BME280;5043;41.766;26.204;2024-02-16T03:34:50;101532.66;;;8.85;77.62
10008;BME280;5043;41.766;26.204;2024-02-16T03:37:15;101530.09;;;8.84;77.78
10008;BME280;5043;41.766;26.204;2024-02-16T03:39:41;101470.53;;;8.49;77.62
10008;BME280;5043;41.766;26.204;2024-02-16T03:42:06;101528.03;;;8.73;78.54
10008;BME280;5043;41.766;26.204;2024-02-16T03:44:32;101528.94;;;8.72;78.50
10008;BME280;5043;41.766;26.204;2024-02-16T03:46:57;101540.47;;;8.70;78.18
10008;BME280;5043;41.766;26.204;2024-02-16T03:49:24;101474.19;;;8.29;78.27
10008;BME280;5043;41.766;26.204;2024-02-16T03:51:50;101537.28;;;8.63;78.33
10008;BME280;5043;41.766;26.204;2024-02-16T03:54:15;101516.72;;;8.54;78.58
10008;BME280;5043;41.766;26.204;2024-02-16T03:56:41;101550.78;;;8.74;78.27
10008;BME280;5043;41.766;26.204;2024-02-16T03:59:06;101550.94;;;8.71;78.47
10008;BME280;5043;41.766;26.204;2024-02-16T04:01:32;101553.69;;;8.68;78.30
10008;BME280;5043;41.766;26.204;2024-02-16T04:03:57;101543.31;;;8.65;78.15
10008;BME280;5043;41.766;26.204;2024-02-16T04:06:23;101547.66;;;8.66;78.26
10008;BME280;5043;41.766;26.204;2024-02-16T04:08:48;101540.63;;;8.67;78.36
10008;BME280;5043;41.766;26.204;2024-02-16T04:11:14;101534.00;;;8.60;78.31
10008;BME280;5043;41.766;26.204;2024-02-16T04:13:40;101551.56;;;8.76;78.38
10008;BME280;5043;41.766;26.204;2024-02-16T04:16:06;101534.63;;;8.65;78.47
10008;BME280;5043;41.766;26.204;2024-02-16T04:18:31;101508.84;;;8.54;78.85
10008;BME280;5043;41.766;26.204;2024-02-16T04:20:57;101548.22;;;8.73;78.98
10008;BME280;5043;41.766;26.204;2024-02-16T04:23:22;101553.19;;;8.79;79.47
10008;BME280;5043;41.766;26.204;2024-02-16T04:25:48;101546.28;;;8.76;79.32
10008;BME280;5043;41.766;26.204;2024-02-16T04:28:13;101526.09;;;8.60;79.32
10008;BME280;5043;41.766;26.204;2024-02-16T04:30:39;101540.25;;;8.57;79.22
10008;BME280;5043;41.766;26.204;2024-02-16T04:33:05;101469.19;;;8.23;79.01
10008;BME280;5043;41.766;26.204;2024-02-16T04:35:30;101552.47;;;8.75;79.09
10008;BME280;5043;41.766;26.204;2024-02-16T04:37:56;101552.47;;;8.75;79.20
10008;BME280;5043;41.766;26.204;2024-02-16T04:40:21;101549.69;;;8.78;79.53
10008;BME280;5043;41.766;26.204;2024-02-16T04:42:47;101541.31;;;8.70;79.64
10008;BME280;5043;41.766;26.204;2024-02-16T04:45:13;101554.31;;;8.73;79.81
10008;BME280;5043;41.766;26.204;2024-02-16T04:47:39;101551.78;;;8.72;80.07
10008;BME280;5043;41.766;26.204;2024-02-16T04:50:06;101555.25;;;8.72;80.52
10008;BME280;5043;41.766;26.204;2024-02-16T04:52:36;101542.56;;;8.63;79.99
10008;BME280;5043;41.766;26.204;2024-02-16T04:55:01;101552.16;;;8.64;80.32
10008;BME280;5043;41.766;26.204;2024-02-16T04:57:29;101559.91;;;8.67;79.83
10008;BME280;5043;41.766;26.204;2024-02-16T04:59:54;101482.03;;;8.12;79.38
10008;BME280;5043;41.766;26.204;2024-02-16T05:02:19;101563.44;;;8.66;79.03
10008;BME280;5043;41.766;26.204;2024-02-16T05:04:45;101541.63;;;8.64;78.54
10008;BME280;5043;41.766;26.204;2024-02-16T05:07:10;101543.16;;;8.51;78.74
10008;BME280;5043;41.766;26.204;2024-02-16T05:09:36;101543.63;;;8.42;77.82
10008;BME280;5043;41.766;26.204;2024-02-16T05:12:01;101617.38;;;8.58;77.77
10008;BME280;5043;41.766;26.204;2024-02-16T05:14:27;101575.84;;;8.64;77.91
10008;BME280;5043;41.766;26.204;2024-02-16T05:16:53;101583.72;;;8.64;77.17
10008;BME280;5043;41.766;26.204;2024-02-16T05:19:18;101597.50;;;8.69;77.33
10008;BME280;5043;41.766;26.204;2024-02-16T05:21:44;101589.63;;;8.69;76.97
10008;BME280;5043;41.766;26.204;2024-02-16T05:24:09;101599.97;;;8.72;76.55
10008;BME280;5043;41.766;26.204;2024-02-16T05:26:36;101595.16;;;8.63;76.02
10008;BME280;5043;41.766;26.204;2024-02-16T05:29:02;101612.19;;;8.73;76.31
10008;BME280;5043;41.766;26.204;2024-02-16T05:31:27;101590.91;;;8.61;76.36
10008;BME280;5043;41.766;26.204;2024-02-16T05:33:52;101624.72;;;8.68;76.38
10008;BME280;5043;41.766;26.204;2024-02-16T05:36:19;101599.38;;;8.67;75.95
10008;BME280;5043;41.766;26.204;2024-02-16T05:38:53;101615.59;;;8.75;76.20
10008;BME280;5043;41.766;26.204;2024-02-16T05:41:21;101590.84;;;8.62;76.52
10008;BME280;5043;41.766;26.204;2024-02-16T05:43:46;101620.88;;;8.75;76.08
10008;BME280;5043;41.766;26.204;2024-02-16T05:46:14;101607.03;;;8.72;76.08
10008;BME280;5043;41.766;26.204;2024-02-16T05:48:40;101622.34;;;8.81;76.38
10008;BME280;5043;41.766;26.204;2024-02-16T05:51:06;101638.41;;;8.75;76.14
10008;BME280;5043;41.766;26.204;2024-02-16T05:53:32;101645.00;;;8.66;76.02
10008;BME280;5043;41.766;26.204;2024-02-16T05:55:59;101626.03;;;8.77;76.38
10008;BME280;5043;41.766;26.204;2024-02-16T05:58:25;101629.69;;;8.74;76.30
10008;BME280;5043;41.766;26.204;2024-02-16T06:00:51;101634.66;;;8.80;75.93
10008;BME280;5043;41.766;26.204;2024-02-16T06:03:16;101617.47;;;8.73;75.97
10008;BME280;5043;41.766;26.204;2024-02-16T06:05:42;101635.13;;;8.88;75.91
10008;BME280;5043;41.766;26.204;2024-02-16T06:08:12;101649.75;;;8.94;75.48
10008;BME280;5043;41.766;26.204;2024-02-16T06:10:38;101612.06;;;8.76;75.54
10008;BME280;5043;41.766;26.204;2024-02-16T06:13:04;101643.94;;;8.87;75.57
10008;BME280;5043;41.766;26.204;2024-02-16T06:15:31;101651.38;;;8.96;75.24
10008;BME280;5043;41.766;26.204;2024-02-16T06:17:59;101649.19;;;8.87;75.47
10008;BME280;5043;41.766;26.204;2024-02-16T06:20:25;101628.16;;;8.87;75.48
10008;BME280;5043;41.766;26.204;2024-02-16T06:22:51;101658.16;;;9.00;75.89
10008;BME280;5043;41.766;26.204;2024-02-16T06:25:16;101653.84;;;8.99;75.99
10008;BME280;5043;41.766;26.204;2024-02-16T06:27:42;101661.59;;;9.03;76.41
10008;BME280;5043;41.766;26.204;2024-02-16T06:30:07;101658.03;;;9.04;76.50
10008;BME280;5043;41.766;26.204;2024-02-16T06:32:38;101667.16;;;8.96;76.69
10008;BME280;5043;41.766;26.204;2024-02-16T06:35:03;101672.91;;;9.05;76.63
10008;BME280;5043;41.766;26.204;2024-02-16T06:37:29;101604.94;;;8.78;76.46
10008;BME280;5043;41.766;26.204;2024-02-16T06:39:54;101647.59;;;9.02;76.86
10008;BME280;5043;41.766;26.204;2024-02-16T06:42:20;101671.66;;;9.12;76.96
10008;BME280;5043;41.766;26.204;2024-02-16T06:44:45;101685.28;;;9.20;77.03
10008;BME280;5043;41.766;26.204;2024-02-16T06:47:11;101630.03;;;9.03;76.90
10008;BME280;5043;41.766;26.204;2024-02-16T06:49:36;101660.97;;;9.15;76.92
10008;BME280;5043;41.766;26.204;2024-02-16T06:52:02;101651.84;;;9.05;77.00
10008;BME280;5043;41.766;26.204;2024-02-16T06:54:27;101641.63;;;8.98;76.32
10008;BME280;5043;41.766;26.204;2024-02-16T06:56:53;101664.06;;;9.23;76.02
10008;BME280;5043;41.766;26.204;2024-02-16T06:59:19;101673.47;;;9.28;75.88
10008;BME280;5043;41.766;26.204;2024-02-16T07:01:45;101648.75;;;9.14;75.33
10008;BME280;5043;41.766;26.204;2024-02-16T07:04:10;101677.88;;;9.28;75.05
10008;BME280;5043;41.766;26.204;2024-02-16T07:06:36;101676.44;;;9.38;74.34
10008;BME280;5043;41.766;26.204;2024-02-16T07:09:01;101679.94;;;9.38;73.80
10008;BME280;5043;41.766;26.204;2024-02-16T07:11:28;101679.06;;;9.38;73.73
10008;BME280;5043;41.766;26.204;2024-02-16T07:13:53;101688.44;;;9.43;73.45
10008;BME280;5043;41.766;26.204;2024-02-16T07:16:19;101690.94;;;9.46;72.80
10008;BME280;5043;41.766;26.204;2024-02-16T07:18:44;101695.81;;;9.54;72.29
10008;BME280;5043;41.766;26.204;2024-02-16T07:21:10;101663.59;;;9.32;72.32
10008;BME280;5043;41.766;26.204;2024-02-16T07:23:36;101692.09;;;9.58;71.69
10008;BME280;5043;41.766;26.204;2024-02-16T07:26:02;101698.38;;;9.55;71.40
10008;BME280;5043;41.766;26.204;2024-02-16T07:28:28;101688.69;;;9.56;70.97
10008;BME280;5043;41.766;26.204;2024-02-16T07:30:53;101693.84;;;9.75;70.08
10008;BME280;5043;41.766;26.204;2024-02-16T07:33:19;101692.63;;;9.64;70.43
10008;BME280;5043;41.766;26.204;2024-02-16T07:35:45;101699.34;;;9.70;70.49
10008;BME280;5043;41.766;26.204;2024-02-16T07:38:11;101682.84;;;9.66;70.24
10008;BME280;5043;41.766;26.204;2024-02-16T07:40:36;101704.16;;;9.79;69.56
10008;BME280;5043;41.766;26.204;2024-02-16T07:43:03;101686.09;;;9.54;69.35
10008;BME280;5043;41.766;26.204;2024-02-16T07:45:30;101705.25;;;9.75;69.15
10008;BME280;5043;41.766;26.204;2024-02-16T07:47:56;101685.31;;;9.69;69.25
10008;BME280;5043;41.766;26.204;2024-02-16T07:50:23;101708.06;;;9.88;68.79
10008;BME280;5043;41.766;26.204;2024-02-16T07:52:49;101714.81;;;9.93;68.30
10008;BME280;5043;41.766;26.204;2024-02-16T07:55:15;101689.19;;;9.80;68.51
10008;BME280;5043;41.766;26.204;2024-02-16T07:57:43;101708.00;;;9.89;68.41
10008;BME280;5043;41.766;26.204;2024-02-16T08:00:10;101707.16;;;9.89;68.61
10008;BME280;5043;41.766;26.204;2024-02-16T08:02:36;101708.94;;;9.88;68.75
10008;BME280;5043;41.766;26.204;2024-02-16T08:05:03;101713.97;;;10.08;68.44
10008;BME280;5043;41.766;26.204;2024-02-16T08:07:28;101720.84;;;10.12;68.32
10008;BME280;5043;41.766;26.204;2024-02-16T08:09:55;101716.94;;;10.19;68.50
10008;BME280;5043;41.766;26.204;2024-02-16T08:12:20;101714.13;;;10.22;68.56
10008;BME280;5043;41.766;26.204;2024-02-16T08:14:46;101706.06;;;10.25;68.00
10008;BME280;5043;41.766;26.204;2024-02-16T08:17:12;101713.41;;;10.36;68.35
10008;BME280;5043;41.766;26.204;2024-02-16T08:19:38;101716.78;;;10.54;68.27
10008;BME280;5043;41.766;26.204;2024-02-16T08:22:06;101711.50;;;10.54;67.51
10008;BME280;5043;41.766;26.204;2024-02-16T08:24:32;101686.66;;;10.42;66.89
10008;BME280;5043;41.766;26.204;2024-02-16T08:26:58;101722.31;;;10.65;67.23
10008;BME280;5043;41.766;26.204;2024-02-16T08:29:24;101671.34;;;10.49;66.86
10008;BME280;5043;41.766;26.204;2024-02-16T08:31:51;101715.59;;;10.75;66.42
10008;BME280;5043;41.766;26.204;2024-02-16T08:34:17;101711.31;;;10.88;67.19
10008;BME280;5043;41.766;26.204;2024-02-16T08:36:46;101720.56;;;10.95;66.61
10008;BME280;5043;41.766;26.204;2024-02-16T08:39:12;101709.59;;;11.02;65.31
10008;BME280;5043;41.766;26.204;2024-02-16T08:41:38;101678.03;;;10.85;65.57
10008;BME280;5043;41.766;26.204;2024-02-16T08:44:06;101718.16;;;11.22;65.55
10008;BME280;5043;41.766;26.204;2024-02-16T08:46:39;101717.34;;;11.35;64.78
10008;BME280;5043;41.766;26.204;2024-02-16T08:49:08;101710.97;;;11.39;64.95
10008;BME280;5043;41.766;26.204;2024-02-16T08:51:35;101724.94;;;11.41;63.94
10008;BME280;5043;41.766;26.204;2024-02-16T08:54:01;101720.03;;;11.49;64.07
10008;BME280;5043;41.766;26.204;2024-02-16T08:56:29;101714.19;;;11.58;63.99
10008;BME280;5043;41.766;26.204;2024-02-16T08:58:55;101700.97;;;11.58;63.14
10008;BME280;5043;41.766;26.204;2024-02-16T09:01:34;101716.88;;;11.72;63.12
10008;BME280;5043;41.766;26.204;2024-02-16T09:04:00;101716.53;;;11.79;62.52
10008;BME280;5043;41.766;26.204;2024-02-16T09:06:26;101718.22;;;11.94;61.84
10008;BME280;5043;41.766;26.204;2024-02-16T09:08:52;101717.75;;;12.01;61.66
10008;BME280;5043;41.766;26.204;2024-02-16T09:11:18;101718.91;;;12.11;60.45
10008;BME280;5043;41.766;26.204;2024-02-16T09:13:43;101726.38;;;12.19;59.41
10008;BME280;5043;41.766;26.204;2024-02-16T09:16:09;101724.81;;;12.43;58.96
10008;BME280;5043;41.766;26.204;2024-02-16T09:18:35;101715.09;;;12.43;58.79
10008;BME280;5043;41.766;26.204;2024-02-16T09:21:06;101723.00;;;12.58;58.37
10008;BME280;5043;41.766;26.204;2024-02-16T09:23:35;101727.97;;;12.76;58.00
10008;BME280;5043;41.766;26.204;2024-02-16T09:26:01;101698.19;;;12.73;56.72
10008;BME280;5043;41.766;26.204;2024-02-16T09:28:28;101728.47;;;12.95;56.28
10008;BME280;5043;41.766;26.204;2024-02-16T09:30:54;101643.22;;;12.50;55.92
10008;BME280;5043;41.766;26.204;2024-02-16T09:33:20;101719.75;;;13.07;55.18
10008;BME280;5043;41.766;26.204;2024-02-16T09:35:47;101691.31;;;12.83;55.05
10008;BME280;5043;41.766;26.204;2024-02-16T09:38:13;101718.03;;;13.06;55.62
10008;BME280;5043;41.766;26.204;2024-02-16T09:40:38;101717.69;;;12.98;56.34
10008;BME280;5043;41.766;26.204;2024-02-16T09:43:04;101717.88;;;12.95;56.26
10008;BME280;5043;41.766;26.204;2024-02-16T09:45:30;101680.28;;;12.76;56.45
10008;BME280;5043;41.766;26.204;2024-02-16T09:47:57;101716.75;;;12.85;57.42
10008;BME280;5043;41.766;26.204;2024-02-16T09:50:23;101719.41;;;12.85;57.88
10008;BME280;5043;41.766;26.204;2024-02-16T09:52:50;101701.47;;;12.76;58.17
10008;BME280;5043;41.766;26.204;2024-02-16T09:55:16;101695.31;;;12.76;58.30
10008;BME280;5043;41.766;26.204;2024-02-16T09:57:43;101723.38;;;12.92;58.72
10008;BME280;5043;41.766;26.204;2024-02-16T10:00:10;101706.53;;;12.93;58.28
10008;BME280;5043;41.766;26.204;2024-02-16T10:02:43;101692.00;;;12.99;58.90
10008;BME280;5043;41.766;26.204;2024-02-16T10:05:16;101693.63;;;13.01;60.08
10008;BME280;5043;41.766;26.204;2024-02-16T10:07:43;101703.78;;;13.22;59.13
10008;BME280;5043;41.766;26.204;2024-02-16T10:10:25;101699.66;;;13.30;60.72
10008;BME280;5043;41.766;26.204;2024-02-16T10:13:05;101667.31;;;13.25;62.80
10008;BME280;5043;41.766;26.204;2024-02-16T10:15:31;101691.09;;;13.39;64.18
10008;BME280;5043;41.766;26.204;2024-02-16T10:18:01;101689.41;;;13.51;64.24
10008;BME280;5043;41.766;26.204;2024-02-16T10:20:28;101687.28;;;13.56;64.03
10008;BME280;5043;41.766;26.204;2024-02-16T10:23:06;101675.44;;;13.61;62.87
10008;BME280;5043;41.766;26.204;2024-02-16T10:25:36;101678.41;;;13.57;62.83
10008;BME280;5043;41.766;26.204;2024-02-16T10:28:08;101690.47;;;13.61;62.66
10008;BME280;5043;41.766;26.204;2024-02-16T10:30:39;101679.66;;;13.64;62.33
10008;BME280;5043;41.766;26.204;2024-02-16T10:33:08;101662.66;;;13.41;62.76
10008;BME280;5043;41.766;26.204;2024-02-16T10:35:36;101635.63;;;13.24;63.19
10008;BME280;5043;41.766;26.204;2024-02-16T10:38:07;101672.97;;;13.33;64.08
10008;BME280;5043;41.766;26.204;2024-02-16T10:40:40;101672.00;;;13.34;65.32
10008;BME280;5043;41.766;26.204;2024-02-16T10:43:08;101675.81;;;13.30;64.56
10008;BME280;5043;41.766;26.204;2024-02-16T10:45:36;101667.81;;;13.18;66.08
10008;BME280;5043;41.766;26.204;2024-02-16T10:48:03;101645.19;;;12.99;65.83
10008;BME280;5043;41.766;26.204;2024-02-16T10:50:31;101661.78;;;13.16;65.24
10008;BME280;5043;41.766;26.204;2024-02-16T10:53:00;101653.53;;;13.07;66.59
10008;BME280;5043;41.766;26.204;2024-02-16T10:55:28;101656.09;;;13.22;67.20
10008;BME280;5043;41.766;26.204;2024-02-16T10:57:56;101650.41;;;13.01;68.23
10008;BME280;5043;41.766;26.204;2024-02-16T11:00:22;101653.53;;;13.07;68.03
10008;BME280;5043;41.766;26.204;2024-02-16T11:05:18;101663.66;;;13.01;67.12
10008;BME280;5043;41.766;26.204;2024-02-16T11:07:44;101661.09;;;12.99;66.97
10008;BME280;5043;41.766;26.204;2024-02-16T11:10:12;101651.16;;;13.03;66.66
10008;BME280;5043;41.766;26.204;2024-02-16T11:12:43;101643.16;;;13.17;66.53
10008;BME280;5043;41.766;26.204;2024-02-16T11:15:11;101635.66;;;13.36;65.96
10008;BME280;5043;41.766;26.204;2024-02-16T11:17:38;101649.00;;;13.72;63.24
10008;BME280;5043;41.766;26.204;2024-02-16T11:20:06;101655.69;;;13.78;62.93
10008;BME280;5043;41.766;26.204;2024-02-16T11:22:36;101647.94;;;13.88;62.69
10008;BME280;5043;41.766;26.204;2024-02-16T11:25:05;101649.63;;;14.01;61.12
10008;BME280;5043;41.766;26.204;2024-02-16T11:27:31;101646.91;;;14.14;60.87
10008;BME280;5043;41.766;26.204;2024-02-16T11:29:59;101644.38;;;14.12;60.69
10008;BME280;5043;41.766;26.204;2024-02-16T11:32:25;101655.59;;;14.28;60.20
10008;BME280;5043;41.766;26.204;2024-02-16T11:34:51;101666.66;;;14.35;59.87
10008;BME280;5043;41.766;26.204;2024-02-16T11:37:17;101644.59;;;14.58;58.02
10008;BME280;5043;41.766;26.204;2024-02-16T11:39:43;101645.41;;;14.82;56.55
10008;BME280;5043;41.766;26.204;2024-02-16T11:42:12;101631.66;;;15.12;54.37
10008;BME280;5043;41.766;26.204;2024-02-16T11:44:54;101623.50;;;15.37;52.53
10008;BME280;5043;41.766;26.204;2024-02-16T11:47:22;101596.13;;;15.59;51.04
10008;BME280;5043;41.766;26.204;2024-02-16T11:52:34;101638.88;;;16.22;48.60
10008;BME280;5043;41.766;26.204;2024-02-16T11:54:59;101608.78;;;16.00;48.10
10008;BME280;5043;41.766;26.204;2024-02-16T11:57:26;101643.03;;;16.04;48.91
10008;BME280;5043;41.766;26.204;2024-02-16T11:59:53;101613.88;;;15.80;49.03
10008;BME280;5043;41.766;26.204;2024-02-16T12:02:20;101638.81;;;15.79;48.80
10008;BME280;5043;41.766;26.204;2024-02-16T12:04:46;101638.63;;;15.48;49.97
10008;BME280;5043;41.766;26.204;2024-02-16T12:07:12;101622.25;;;15.19;50.83
10008;BME280;5043;41.766;26.204;2024-02-16T12:09:39;101630.19;;;15.08;52.29
10008;BME280;5043;41.766;26.204;2024-02-16T12:12:06;101605.94;;;14.89;52.72
10008;BME280;5043;41.766;26.204;2024-02-16T12:14:32;101627.78;;;15.16;53.15
10008;BME280;5043;41.766;26.204;2024-02-16T12:16:58;101628.53;;;15.29;52.14
10008;BME280;5043;41.766;26.204;2024-02-16T12:19:25;101620.59;;;15.40;51.88
10008;BME280;5043;41.766;26.204;2024-02-16T12:21:57;101600.81;;;15.55;51.61
10008;BME280;5043;41.766;26.204;2024-02-16T12:24:23;101624.47;;;16.25;49.49
10008;BME280;5043;41.766;26.204;2024-02-16T12:26:49;101625.09;;;17.03;46.35
10008;BME280;5043;41.766;26.204;2024-02-16T12:29:15;101618.47;;;17.39;44.33
10008;BME280;5043;41.766;26.204;2024-02-16T12:31:44;101622.63;;;17.32;44.05
10008;BME280;5043;41.766;26.204;2024-02-16T12:34:10;101607.88;;;17.28;44.64
10008;BME280;5043;41.766;26.204;2024-02-16T12:36:40;101623.00;;;17.48;44.89
10008;BME280;5043;41.766;26.204;2024-02-16T12:39:06;101613.91;;;17.30;45.04
10008;BME280;5043;41.766;26.204;2024-02-16T12:41:34;101628.03;;;17.62;44.47
10008;BME280;5043;41.766;26.204;2024-02-16T12:44:01;101625.97;;;18.05;43.20
10008;BME280;5043;41.766;26.204;2024-02-16T12:46:27;101621.03;;;18.60;41.89
10008;BME280;5043;41.766;26.204;2024-02-16T12:48:54;101587.69;;;19.02;41.09
10008;BME280;5043;41.766;26.204;2024-02-16T12:51:20;101623.41;;;19.39;40.27
10008;BME280;5043;41.766;26.204;2024-02-16T12:53:45;101635.59;;;19.70;39.64
10008;BME280;5043;41.766;26.204;2024-02-16T12:56:11;101617.69;;;19.71;39.12
10008;BME280;5043;41.766;26.204;2024-02-16T12:58:37;101601.28;;;19.28;39.72